Terminal Aerodrome Forecast
Issued by NWS

Home | Current Version | Previous Version | Text Only | Print | Product List | Glossary On
Versions: 1 2 3 4 5 6 7 8 9 10 11 12 13 14 15 16 17 18 19 20 21 22 23 24 25 26
183
FTUS43 KLOT 090531
TAFORD
TAF
KORD 090531Z 0906/1012 31013KT 3SM -SHSN SCT015 OVC035
      TEMPO 0909/0913 1 1/2SM -SHSN BR BKN015
     FM091300 32015G22KT P6SM -SHSN BKN025 OVC040 PROB30 0918/0922
      2SM -SHSN
     FM100600 32016G23KT P6SM BKN060=

USA.gov is the U.S. government's official web portal to all federal, state and local government web resources and services.